sensor_id;sensor_type;location;lat;lon;timestamp;pressure;altitude;pressure_sealevel;temperature;humidity
22000;BME280;11164;48.818;2.322;2022-12-20T00:01:21;100498.00;;;12.32;47.80
22000;BME280;11164;48.818;2.322;2022-12-20T00:03:52;100519.81;;;12.44;47.61
22000;BME280;11164;48.818;2.322;2022-12-20T00:06:18;100533.47;;;12.56;47.42
22000;BME280;11164;48.818;2.322;2022-12-20T00:08:44;100524.16;;;12.45;47.61
22000;BME280;11164;48.818;2.322;2022-12-20T00:11:09;100516.66;;;12.47;47.37
22000;BME280;11164;48.818;2.322;2022-12-20T00:13:35;100517.09;;;12.44;47.44
22000;BME280;11164;48.818;2.322;2022-12-20T00:16:11;100503.56;;;12.44;47.67
22000;BME280;11164;48.818;2.322;2022-12-20T00:18:38;100506.09;;;12.39;47.54
22000;BME280;11164;48.818;2.322;2022-12-20T00:21:05;100503.81;;;12.36;47.52
22000;BME280;11164;48.818;2.322;2022-12-20T00:23:32;100500.88;;;12.37;47.46
22000;BME280;11164;48.818;2.322;2022-12-20T00:26:25;100496.72;;;12.35;47.76
22000;BME280;11164;48.818;2.322;2022-12-20T00:28:52;100488.81;;;12.33;47.46
22000;BME280;11164;48.818;2.322;2022-12-20T00:31:19;100500.69;;;12.39;47.11
22000;BME280;11164;48.818;2.322;2022-12-20T00:33:48;100497.78;;;12.27;47.57
22000;BME280;11164;48.818;2.322;2022-12-20T00:36:14;100500.50;;;12.21;47.60
22000;BME280;11164;48.818;2.322;2022-12-20T00:38:40;100486.38;;;12.18;47.63
22000;BME280;11164;48.818;2.322;2022-12-20T00:41:10;100500.94;;;12.17;47.56
22000;BME280;11164;48.818;2.322;2022-12-20T00:43:38;100492.63;;;12.19;47.55
22000;BME280;11164;48.818;2.322;2022-12-20T00:46:05;100490.91;;;12.31;47.35
22000;BME280;11164;48.818;2.322;2022-12-20T00:48:31;100492.38;;;12.27;47.58
22000;BME280;11164;48.818;2.322;2022-12-20T00:50:58;100485.94;;;12.28;47.52
22000;BME280;11164;48.818;2.322;2022-12-20T00:53:23;100479.69;;;12.34;47.41
22000;BME280;11164;48.818;2.322;2022-12-20T00:55:48;100484.69;;;12.31;47.66
22000;BME280;11164;48.818;2.322;2022-12-20T00:58:14;100481.34;;;12.35;47.54
22000;BME280;11164;48.818;2.322;2022-12-20T01:00:39;100478.66;;;12.35;47.54
22000;BME280;11164;48.818;2.322;2022-12-20T01:03:05;100475.06;;;12.42;47.44
22000;BME280;11164;48.818;2.322;2022-12-20T01:05:31;100486.09;;;12.40;47.24
22000;BME280;11164;48.818;2.322;2022-12-20T01:07:57;100483.19;;;12.42;47.44
22000;BME280;11164;48.818;2.322;2022-12-20T01:10:22;100477.97;;;12.47;47.60
22000;BME280;11164;48.818;2.322;2022-12-20T01:12:47;100460.53;;;12.43;47.43
22000;BME280;11164;48.818;2.322;2022-12-20T01:15:13;100471.56;;;12.41;47.63
22000;BME280;11164;48.818;2.322;2022-12-20T01:17:39;100469.03;;;12.46;47.74
22000;BME280;11164;48.818;2.322;2022-12-20T01:20:05;100479.44;;;12.43;47.67
22000;BME280;11164;48.818;2.322;2022-12-20T01:22:32;100489.19;;;12.44;47.81
22000;BME280;11164;48.818;2.322;2022-12-20T01:24:58;100461.38;;;12.30;47.88
22000;BME280;11164;48.818;2.322;2022-12-20T01:27:23;100479.66;;;12.41;47.67
22000;BME280;11164;48.818;2.322;2022-12-20T01:29:49;100470.72;;;12.41;47.73
22000;BME280;11164;48.818;2.322;2022-12-20T01:32:15;100463.41;;;12.48;47.68
22000;BME280;11164;48.818;2.322;2022-12-20T01:34:40;100457.78;;;12.49;47.45
22000;BME280;11164;48.818;2.322;2022-12-20T01:37:05;100466.09;;;12.54;47.55
22000;BME280;11164;48.818;2.322;2022-12-20T01:39:31;100460.88;;;12.60;47.50
22000;BME280;11164;48.818;2.322;2022-12-20T01:41:56;100467.94;;;12.54;47.42
22000;BME280;11164;48.818;2.322;2022-12-20T01:46:48;100472.97;;;12.50;47.73
22000;BME280;11164;48.818;2.322;2022-12-20T01:52:11;100456.75;;;12.44;47.64
22000;BME280;11164;48.818;2.322;2022-12-20T01:54:56;100455.50;;;12.46;47.76
22000;BME280;11164;48.818;2.322;2022-12-20T01:57:30;100459.31;;;12.32;48.16
22000;BME280;11164;48.818;2.322;2022-12-20T01:59:57;100456.63;;;12.25;48.32
22000;BME280;11164;48.818;2.322;2022-12-20T02:02:23;100455.53;;;12.40;47.94
22000;BME280;11164;48.818;2.322;2022-12-20T02:04:48;100452.19;;;12.51;47.87
22000;BME280;11164;48.818;2.322;2022-12-20T02:07:18;100461.56;;;12.42;47.93
22000;BME280;11164;48.818;2.322;2022-12-20T02:09:44;100466.53;;;12.45;47.87
22000;BME280;11164;48.818;2.322;2022-12-20T02:12:22;100468.22;;;12.46;47.98
22000;BME280;11164;48.818;2.322;2022-12-20T02:17:44;100471.94;;;12.45;47.70
22000;BME280;11164;48.818;2.322;2022-12-20T02:31:08;100457.63;;;12.37;47.81
22000;BME280;11164;48.818;2.322;2022-12-20T02:33:34;100457.63;;;12.37;47.76
22000;BME280;11164;48.818;2.322;2022-12-20T02:36:02;100456.81;;;12.37;47.67
22000;BME280;11164;48.818;2.322;2022-12-20T02:38:36;100458.44;;;12.38;47.62
22000;BME280;11164;48.818;2.322;2022-12-20T02:41:06;100460.75;;;12.34;47.54
22000;BME280;11164;48.818;2.322;2022-12-20T02:43:35;100452.25;;;12.24;47.76
22000;BME280;11164;48.818;2.322;2022-12-20T02:46:20;100453.53;;;12.22;47.62
22000;BME280;11164;48.818;2.322;2022-12-20T02:48:48;100451.88;;;12.14;47.87
22000;BME280;11164;48.818;2.322;2022-12-20T02:51:17;100455.03;;;12.04;48.08
22000;BME280;11164;48.818;2.322;2022-12-20T02:53:44;100440.06;;;12.08;48.06
22000;BME280;11164;48.818;2.322;2022-12-20T02:56:26;100424.47;;;12.04;48.11
22000;BME280;11164;48.818;2.322;2022-12-20T02:59:10;100427.19;;;11.97;48.04
22000;BME280;11164;48.818;2.322;2022-12-20T03:01:44;100426.56;;;12.02;48.92
22000;BME280;11164;48.818;2.322;2022-12-20T03:04:12;100421.59;;;11.92;47.89
22000;BME280;11164;48.818;2.322;2022-12-20T03:06:38;100423.88;;;11.88;48.13
22000;BME280;11164;48.818;2.322;2022-12-20T03:09:03;100415.38;;;11.85;48.38
22000;BME280;11164;48.818;2.322;2022-12-20T03:11:29;100414.94;;;11.88;48.21
22000;BME280;11164;48.818;2.322;2022-12-20T03:13:54;100411.84;;;11.84;48.21
22000;BME280;11164;48.818;2.322;2022-12-20T03:16:20;100403.53;;;11.86;48.08
22000;BME280;11164;48.818;2.322;2022-12-20T03:18:45;100396.66;;;11.83;48.21
22000;BME280;11164;48.818;2.322;2022-12-20T03:21:12;100408.13;;;11.78;48.19
22000;BME280;11164;48.818;2.322;2022-12-20T03:23:37;100418.50;;;11.81;48.16
22000;BME280;11164;48.818;2.322;2022-12-20T03:26:03;100420.78;;;11.85;48.10
22000;BME280;11164;48.818;2.322;2022-12-20T03:28:28;100408.75;;;11.80;48.25
22000;BME280;11164;48.818;2.322;2022-12-20T03:30:54;100408.75;;;11.80;48.13
22000;BME280;11164;48.818;2.322;2022-12-20T03:33:19;100405.63;;;11.77;48.31
22000;BME280;11164;48.818;2.322;2022-12-20T03:35:46;100390.44;;;11.82;48.24
22000;BME280;11164;48.818;2.322;2022-12-20T03:38:11;100403.53;;;11.86;48.06
22000;BME280;11164;48.818;2.322;2022-12-20T03:40:36;100403.13;;;11.82;48.19
22000;BME280;11164;48.818;2.322;2022-12-20T03:43:02;100404.81;;;11.76;48.13
22000;BME280;11164;48.818;2.322;2022-12-20T03:45:27;100414.53;;;11.84;48.10
22000;BME280;11164;48.818;2.322;2022-12-20T03:47:52;100407.50;;;11.76;48.16
22000;BME280;11164;48.818;2.322;2022-12-20T03:50:18;100408.53;;;11.82;47.98
22000;BME280;11164;48.818;2.322;2022-12-20T03:52:43;100408.72;;;11.74;48.40
22000;BME280;11164;48.818;2.322;2022-12-20T03:55:09;100400.84;;;11.66;48.37
22000;BME280;11164;48.818;2.322;2022-12-20T03:57:36;100410.00;;;11.78;48.14
22000;BME280;11164;48.818;2.322;2022-12-20T04:00:02;100396.69;;;11.70;48.39
22000;BME280;11164;48.818;2.322;2022-12-20T04:02:28;100396.72;;;11.76;48.17
22000;BME280;11164;48.818;2.322;2022-12-20T04:04:53;100399.19;;;11.71;48.23
22000;BME280;11164;48.818;2.322;2022-12-20T04:07:18;100394.41;;;11.73;48.32
22000;BME280;11164;48.818;2.322;2022-12-20T04:09:44;100390.44;;;11.76;48.08
22000;BME280;11164;48.818;2.322;2022-12-20T04:12:09;100391.69;;;11.73;48.30
22000;BME280;11164;48.818;2.322;2022-12-20T04:14:34;100386.50;;;11.72;48.36
22000;BME280;11164;48.818;2.322;2022-12-20T04:17:01;100374.91;;;11.78;48.13
22000;BME280;11164;48.818;2.322;2022-12-20T04:19:27;100366.53;;;11.79;48.08
22000;BME280;11164;48.818;2.322;2022-12-20T04:21:52;100370.50;;;11.84;48.07
22000;BME280;11164;48.818;2.322;2022-12-20T04:24:20;100362.59;;;11.69;48.33
22000;BME280;11164;48.818;2.322;2022-12-20T04:26:45;100354.28;;;11.70;48.38
22000;BME280;11164;48.818;2.322;2022-12-20T04:29:10;100355.78;;;11.59;48.55
22000;BME280;11164;48.818;2.322;2022-12-20T04:31:36;100345.59;;;11.75;48.38
22000;BME280;11164;48.818;2.322;2022-12-20T04:34:01;100349.53;;;11.79;48.26
22000;BME280;11164;48.818;2.322;2022-12-20T04:36:26;100341.84;;;11.76;48.32
22000;BME280;11164;48.818;2.322;2022-12-20T04:38:52;100343.50;;;11.77;48.31
22000;BME280;11164;48.818;2.322;2022-12-20T04:41:18;100356.41;;;11.75;48.53
22000;BME280;11164;48.818;2.322;2022-12-20T04:43:50;100358.03;;;11.76;48.37
22000;BME280;11164;48.818;2.322;2022-12-20T04:46:17;100355.97;;;11.78;48.42
22000;BME280;11164;48.818;2.322;2022-12-20T04:48:42;100355.97;;;11.78;48.48
22000;BME280;11164;48.818;2.322;2022-12-20T04:51:07;100346.59;;;11.87;48.28
22000;BME280;11164;48.818;2.322;2022-12-20T04:53:33;100345.31;;;11.90;48.24
22000;BME280;11164;48.818;2.322;2022-12-20T04:58:43;100349.28;;;11.94;48.14
22000;BME280;11164;48.818;2.322;2022-12-20T05:01:09;100361.31;;;11.91;48.24
22000;BME280;11164;48.818;2.322;2022-12-20T05:03:36;100357.78;;;11.97;48.22
22000;BME280;11164;48.818;2.322;2022-12-20T05:06:02;100360.66;;;12.03;48.22
22000;BME280;11164;48.818;2.322;2022-12-20T05:08:27;100361.69;;;12.08;48.11
22000;BME280;11164;48.818;2.322;2022-12-20T05:10:52;100335.50;;;12.02;48.40
22000;BME280;11164;48.818;2.322;2022-12-20T05:13:18;100336.94;;;12.11;48.13
22000;BME280;11164;48.818;2.322;2022-12-20T05:15:43;100337.13;;;12.16;47.89
22000;BME280;11164;48.818;2.322;2022-12-20T05:18:09;100322.38;;;12.06;48.37
22000;BME280;11164;48.818;2.322;2022-12-20T05:20:34;100324.88;;;12.07;48.13
22000;BME280;11164;48.818;2.322;2022-12-20T05:23:00;100329.66;;;12.12;48.13
22000;BME280;11164;48.818;2.322;2022-12-20T05:25:47;100312.22;;;12.08;48.28
22000;BME280;11164;48.818;2.322;2022-12-20T05:28:31;100322.75;;;12.16;47.96
22000;BME280;11164;48.818;2.322;2022-12-20T05:30:57;100322.81;;;12.09;48.17
22000;BME280;11164;48.818;2.322;2022-12-20T05:33:22;100309.69;;;12.13;48.04
22000;BME280;11164;48.818;2.322;2022-12-20T05:35:47;100307.81;;;12.13;47.98
22000;BME280;11164;48.818;2.322;2022-12-20T05:38:13;100322.94;;;12.21;48.02
22000;BME280;11164;48.818;2.322;2022-12-20T05:40:38;100328.41;;;12.14;48.11
22000;BME280;11164;48.818;2.322;2022-12-20T05:43:04;100327.34;;;12.15;48.01
22000;BME280;11164;48.818;2.322;2022-12-20T05:45:30;100330.66;;;12.17;47.86
22000;BME280;11164;48.818;2.322;2022-12-20T05:47:56;100317.75;;;12.19;47.83
22000;BME280;11164;48.818;2.322;2022-12-20T05:50:21;100310.69;;;12.18;47.85
22000;BME280;11164;48.818;2.322;2022-12-20T05:52:47;100316.28;;;12.24;47.69
22000;BME280;11164;48.818;2.322;2022-12-20T05:55:12;100315.22;;;12.25;47.68
22000;BME280;11164;48.818;2.322;2022-12-20T05:57:38;100330.41;;;12.26;47.70
22000;BME280;11164;48.818;2.322;2022-12-20T06:00:04;100323.41;;;12.11;48.10
22000;BME280;11164;48.818;2.322;2022-12-20T06:02:29;100315.50;;;12.16;47.94
22000;BME280;11164;48.818;2.322;2022-12-20T06:04:55;100303.41;;;12.19;47.98
22000;BME280;11164;48.818;2.322;2022-12-20T06:07:22;100317.84;;;12.38;47.57
22000;BME280;11164;48.818;2.322;2022-12-20T06:09:47;100330.38;;;12.32;47.52
22000;BME280;11164;48.818;2.322;2022-12-20T06:12:12;100308.34;;;12.29;47.77
22000;BME280;11164;48.818;2.322;2022-12-20T06:14:38;100326.75;;;12.45;47.60
22000;BME280;11164;48.818;2.322;2022-12-20T06:17:03;100333.25;;;12.37;47.83
22000;BME280;11164;48.818;2.322;2022-12-20T06:19:28;100324.72;;;12.41;47.69
22000;BME280;11164;48.818;2.322;2022-12-20T06:21:54;100338.63;;;12.44;47.75
22000;BME280;11164;48.818;2.322;2022-12-20T06:24:19;100322.22;;;12.39;47.50
22000;BME280;11164;48.818;2.322;2022-12-20T06:26:45;100320.53;;;12.45;47.60
22000;BME280;11164;48.818;2.322;2022-12-20T06:29:10;100332.16;;;12.45;47.58
22000;BME280;11164;48.818;2.322;2022-12-20T06:31:39;100325.72;;;12.46;47.57
22000;BME280;11164;48.818;2.322;2022-12-20T06:34:04;100318.75;;;12.32;47.89
22000;BME280;11164;48.818;2.322;2022-12-20T06:36:29;100326.72;;;12.52;47.57
22000;BME280;11164;48.818;2.322;2022-12-20T06:38:57;100325.19;;;12.63;47.63
22000;BME280;11164;48.818;2.322;2022-12-20T06:41:23;100326.09;;;12.50;47.75
22000;BME280;11164;48.818;2.322;2022-12-20T06:43:48;100328.38;;;12.53;47.42
22000;BME280;11164;48.818;2.322;2022-12-20T06:46:13;100316.66;;;12.59;47.36
22000;BME280;11164;48.818;2.322;2022-12-20T06:48:39;100325.13;;;12.69;47.10
22000;BME280;11164;48.818;2.322;2022-12-20T06:51:04;100319.38;;;12.59;47.64
22000;BME280;11164;48.818;2.322;2022-12-20T06:53:29;100320.53;;;12.70;47.40
22000;BME280;11164;48.818;2.322;2022-12-20T06:55:55;100315.59;;;12.67;47.20
22000;BME280;11164;48.818;2.322;2022-12-20T06:58:20;100315.75;;;12.72;47.11
22000;BME280;11164;48.818;2.322;2022-12-20T07:00:46;100315.13;;;12.70;47.32
22000;BME280;11164;48.818;2.322;2022-12-20T07:03:12;100316.38;;;12.74;47.11
22000;BME280;11164;48.818;2.322;2022-12-20T07:05:37;100317.63;;;12.71;47.51
22000;BME280;11164;48.818;2.322;2022-12-20T07:08:03;100323.03;;;12.71;47.50
22000;BME280;11164;48.818;2.322;2022-12-20T07:10:30;100325.09;;;12.76;47.15
22000;BME280;11164;48.818;2.322;2022-12-20T07:12:55;100331.22;;;12.65;47.49
22000;BME280;11164;48.818;2.322;2022-12-20T07:15:21;100314.09;;;12.71;47.40
22000;BME280;11164;48.818;2.322;2022-12-20T07:17:46;100327.56;;;12.78;47.43
22000;BME280;11164;48.818;2.322;2022-12-20T07:20:12;100322.38;;;12.76;47.29
22000;BME280;11164;48.818;2.322;2022-12-20T07:22:38;100323.66;;;12.73;47.29
22000;BME280;11164;48.818;2.322;2022-12-20T07:25:03;100317.22;;;12.68;47.50
22000;BME280;11164;48.818;2.322;2022-12-20T07:27:29;100306.41;;;12.68;47.39
22000;BME280;11164;48.818;2.322;2022-12-20T07:29:54;100313.09;;;12.65;47.54
22000;BME280;11164;48.818;2.322;2022-12-20T07:32:20;100318.31;;;12.67;47.46
22000;BME280;11164;48.818;2.322;2022-12-20T07:34:48;100310.00;;;12.62;47.44
22000;BME280;11164;48.818;2.322;2022-12-20T07:37:14;100317.63;;;12.71;47.53
22000;BME280;11164;48.818;2.322;2022-12-20T07:39:39;100313.59;;;12.87;46.81
22000;BME280;11164;48.818;2.322;2022-12-20T07:42:06;100319.63;;;12.83;46.91
22000;BME280;11164;48.818;2.322;2022-12-20T07:44:31;100308.84;;;12.76;47.00
22000;BME280;11164;48.818;2.322;2022-12-20T07:46:57;100318.84;;;12.75;47.22
22000;BME280;11164;48.818;2.322;2022-12-20T07:49:22;100329.22;;;12.79;47.07
22000;BME280;11164;48.818;2.322;2022-12-20T07:51:50;100328.78;;;12.88;46.84
22000;BME280;11164;48.818;2.322;2022-12-20T07:54:20;100325.25;;;12.81;46.91
22000;BME280;11164;48.818;2.322;2022-12-20T07:56:51;100322.59;;;12.74;47.16
22000;BME280;11164;48.818;2.322;2022-12-20T07:59:22;100322.31;;;12.89;46.76
22000;BME280;11164;48.818;2.322;2022-12-20T08:01:48;100327.91;;;12.94;46.61
22000;BME280;11164;48.818;2.322;2022-12-20T08:04:19;100323.03;;;13.03;46.56
22000;BME280;11164;48.818;2.322;2022-12-20T08:06:45;100320.97;;;12.99;46.68
22000;BME280;11164;48.818;2.322;2022-12-20T08:09:13;100332.03;;;12.97;46.59
22000;BME280;11164;48.818;2.322;2022-12-20T08:11:40;100325.78;;;12.97;46.63
22000;BME280;11164;48.818;2.322;2022-12-20T08:14:08;100320.81;;;12.93;46.75
22000;BME280;11164;48.818;2.322;2022-12-20T08:16:34;100320.00;;;12.93;46.63
22000;BME280;11164;48.818;2.322;2022-12-20T08:18:59;100332.84;;;12.98;46.58
22000;BME280;11164;48.818;2.322;2022-12-20T08:21:25;100334.91;;;13.02;46.63
22000;BME280;11164;48.818;2.322;2022-12-20T08:23:50;100336.44;;;12.91;46.82
22000;BME280;11164;48.818;2.322;2022-12-20T08:26:16;100336.34;;;13.05;46.62
22000;BME280;11164;48.818;2.322;2022-12-20T08:28:41;100324.03;;;13.09;46.58
22000;BME280;11164;48.818;2.322;2022-12-20T08:31:08;100326.72;;;12.84;47.02
22000;BME280;11164;48.818;2.322;2022-12-20T08:33:34;100318.53;;;12.90;46.84
22000;BME280;11164;48.818;2.322;2022-12-20T08:36:02;100322.28;;;12.96;46.81
22000;BME280;11164;48.818;2.322;2022-12-20T08:38:28;100327.16;;;13.06;46.52
22000;BME280;11164;48.818;2.322;2022-12-20T08:41:00;100322.03;;;12.98;46.33
22000;BME280;11164;48.818;2.322;2022-12-20T08:43:26;100325.56;;;12.98;46.71
22000;BME280;11164;48.818;2.322;2022-12-20T08:45:53;100328.13;;;12.93;46.89
22000;BME280;11164;48.818;2.322;2022-12-20T08:48:20;100323.75;;;12.92;46.70
22000;BME280;11164;48.818;2.322;2022-12-20T08:50:45;100331.81;;;12.99;46.66
22000;BME280;11164;48.818;2.322;2022-12-20T08:53:10;100323.91;;;12.97;46.79
22000;BME280;11164;48.818;2.322;2022-12-20T08:55:36;100323.84;;;13.04;46.40
22000;BME280;11164;48.818;2.322;2022-12-20T08:58:01;100326.28;;;12.87;47.18
22000;BME280;11164;48.818;2.322;2022-12-20T09:00:26;100322.44;;;13.01;46.74
22000;BME280;11164;48.818;2.322;2022-12-20T09:02:53;100330.88;;;12.86;47.07
22000;BME280;11164;48.818;2.322;2022-12-20T09:05:19;100325.97;;;13.02;46.67
22000;BME280;11164;48.818;2.322;2022-12-20T09:07:44;100325.13;;;13.01;46.67
22000;BME280;11164;48.818;2.322;2022-12-20T09:10:09;100334.63;;;13.10;46.17
22000;BME280;11164;48.818;2.322;2022-12-20T09:12:36;100336.44;;;12.91;46.83
22000;BME280;11164;48.818;2.322;2022-12-20T09:15:02;100340.75;;;12.99;46.55
22000;BME280;11164;48.818;2.322;2022-12-20T09:17:28;100349.88;;;13.05;46.24
22000;BME280;11164;48.818;2.322;2022-12-20T09:19:54;100339.75;;;12.93;46.74
22000;BME280;11164;48.818;2.322;2022-12-20T09:22:19;100339.38;;;12.83;46.87
22000;BME280;11164;48.818;2.322;2022-12-20T09:24:45;100347.16;;;12.73;47.05
22000;BME280;11164;48.818;2.322;2022-12-20T09:27:10;100335.94;;;12.69;47.09
22000;BME280;11164;48.818;2.322;2022-12-20T09:29:36;100341.09;;;12.84;46.53
22000;BME280;11164;48.818;2.322;2022-12-20T09:32:01;100338.19;;;12.79;46.83
22000;BME280;11164;48.818;2.322;2022-12-20T09:34:26;100338.69;;;12.63;46.64
22000;BME280;11164;48.818;2.322;2022-12-20T09:36:52;100334.66;;;12.47;47.34
22000;BME280;11164;48.818;2.322;2022-12-20T09:39:17;100324.03;;;12.45;47.31
22000;BME280;11164;48.818;2.322;2022-12-20T09:41:43;100336.59;;;12.33;47.64
22000;BME280;11164;48.818;2.322;2022-12-20T09:44:17;100341.09;;;12.07;48.92
22000;BME280;11164;48.818;2.322;2022-12-20T09:46:46;100340.69;;;12.04;48.60
22000;BME280;11164;48.818;2.322;2022-12-20T09:49:16;100336.75;;;12.06;48.60
22000;BME280;11164;48.818;2.322;2022-12-20T09:54:39;100334.50;;;11.96;48.98
22000;BME280;11164;48.818;2.322;2022-12-20T09:59:55;100327.38;;;12.09;48.61
22000;BME280;11164;48.818;2.322;2022-12-20T10:02:22;100330.03;;;12.15;48.57
22000;BME280;11164;48.818;2.322;2022-12-20T10:04:49;100327.34;;;12.15;48.69
22000;BME280;11164;48.818;2.322;2022-12-20T10:23:19;100330.25;;;12.14;49.71
22000;BME280;11164;48.818;2.322;2022-12-20T10:25:50;100321.13;;;12.15;49.22
22000;BME280;11164;48.818;2.322;2022-12-20T10:28:16;100321.25;;;12.27;49.06
22000;BME280;11164;48.818;2.322;2022-12-20T10:30:42;100321.28;;;12.20;49.59
22000;BME280;11164;48.818;2.322;2022-12-20T10:33:17;100318.19;;;12.16;50.95
22000;BME280;11164;48.818;2.322;2022-12-20T10:35:43;100311.34;;;12.14;49.78
22000;BME280;11164;48.818;2.322;2022-12-20T10:38:11;100305.53;;;12.10;50.21
22000;BME280;11164;48.818;2.322;2022-12-20T10:43:05;100299.56;;;12.33;49.73
22000;BME280;11164;48.818;2.322;2022-12-20T10:45:39;100280.72;;;12.27;49.69
22000;BME280;11164;48.818;2.322;2022-12-20T10:48:25;100299.25;;;12.23;52.87
22000;BME280;11164;48.818;2.322;2022-12-20T10:51:12;100300.47;;;12.27;50.11
22000;BME280;11164;48.818;2.322;2022-12-20T10:53:59;100300.69;;;12.19;50.67
22000;BME280;11164;48.818;2.322;2022-12-20T10:56:32;100306.28;;;12.24;50.31
22000;BME280;11164;48.818;2.322;2022-12-20T11:01:43;100292.66;;;12.06;50.29
22000;BME280;11164;48.818;2.322;2022-12-20T11:04:39;100293.47;;;12.13;53.11
22000;BME280;11164;48.818;2.322;2022-12-20T11:07:24;100301.03;;;11.97;52.47
22000;BME280;11164;48.818;2.322;2022-12-20T11:09:58;100291.88;;;11.98;51.24
22000;BME280;11164;48.818;2.322;2022-12-20T11:12:24;100289.13;;;12.05;50.29
22000;BME280;11164;48.818;2.322;2022-12-20T11:14:49;100289.53;;;12.09;50.37
22000;BME280;11164;48.818;2.322;2022-12-20T11:17:42;100283.31;;;12.08;51.58
22000;BME280;11164;48.818;2.322;2022-12-20T11:28:46;100287.91;;;12.08;51.76
22000;BME280;11164;48.818;2.322;2022-12-20T11:31:27;100284.31;;;12.14;51.07
22000;BME280;11164;48.818;2.322;2022-12-20T11:39:25;100276.81;;;12.16;51.01
22000;BME280;11164;48.818;2.322;2022-12-20T11:50:51;100250.34;;;12.25;51.98
22000;BME280;11164;48.818;2.322;2022-12-20T11:53:25;100239.41;;;12.45;50.43
22000;BME280;11164;48.818;2.322;2022-12-20T11:55:53;100235.41;;;12.47;50.32
22000;BME280;11164;48.818;2.322;2022-12-20T11:58:29;100236.97;;;12.36;50.75
22000;BME280;11164;48.818;2.322;2022-12-20T12:01:03;100227.25;;;12.29;50.87
22000;BME280;11164;48.818;2.322;2022-12-20T12:03:36;100230.34;;;12.32;50.78
22000;BME280;11164;48.818;2.322;2022-12-20T12:09:13;100228.47;;;12.33;51.02
22000;BME280;11164;48.818;2.322;2022-12-20T12:11:34;100221.41;;;12.32;50.79
22000;BME280;11164;48.818;2.322;2022-12-20T12:14:02;100216.22;;;12.30;50.84
22000;BME280;11164;48.818;2.322;2022-12-20T12:16:36;100207.56;;;12.47;50.98
22000;BME280;11164;48.818;2.322;2022-12-20T12:19:08;100211.03;;;12.54;50.74
22000;BME280;11164;48.818;2.322;2022-12-20T12:21:38;100206.75;;;12.46;50.91
22000;BME280;11164;48.818;2.322;2022-12-20T12:24:17;100202.31;;;12.27;51.61
22000;BME280;11164;48.818;2.322;2022-12-20T12:26:44;100194.78;;;12.35;51.03
22000;BME280;11164;48.818;2.322;2022-12-20T12:29:14;100197.63;;;12.41;51.01
22000;BME280;11164;48.818;2.322;2022-12-20T12:32:01;100192.50;;;12.32;51.63
22000;BME280;11164;48.818;2.322;2022-12-20T12:40:05;100165.53;;;12.51;50.77
22000;BME280;11164;48.818;2.322;2022-12-20T12:45:39;100172.25;;;12.42;51.19
22000;BME280;11164;48.818;2.322;2022-12-20T12:48:16;100167.81;;;12.47;51.20
22000;BME280;11164;48.818;2.322;2022-12-20T12:50:46;100175.72;;;12.49;51.02
22000;BME280;11164;48.818;2.322;2022-12-20T12:53:15;100179.31;;;12.43;51.21
22000;BME280;11164;48.818;2.322;2022-12-20T12:55:49;100181.25;;;12.35;52.37
22000;BME280;11164;48.818;2.322;2022-12-20T13:16:35;100162.03;;;12.44;52.03
22000;BME280;11164;48.818;2.322;2022-12-20T13:19:10;100164.56;;;12.38;52.41
22000;BME280;11164;48.818;2.322;2022-12-20T13:21:37;100160.72;;;12.53;51.86
22000;BME280;11164;48.818;2.322;2022-12-20T13:24:52;100161.00;;;12.45;54.36
22000;BME280;11164;48.818;2.322;2022-12-20T13:37:54;100144.50;;;12.71;52.28
22000;BME280;11164;48.818;2.322;2022-12-20T13:43:23;100138.56;;;12.81;51.81
22000;BME280;11164;48.818;2.322;2022-12-20T13:45:52;100146.75;;;12.74;52.05
22000;BME280;11164;48.818;2.322;2022-12-20T13:48:26;100142.41;;;12.73;52.46
22000;BME280;11164;48.818;2.322;2022-12-20T13:50:54;100135.41;;;12.91;51.78
22000;BME280;11164;48.818;2.322;2022-12-20T13:53:22;100121.38;;;12.94;51.64
22000;BME280;11164;48.818;2.322;2022-12-20T13:55:48;100129.28;;;12.96;51.52
22000;BME280;11164;48.818;2.322;2022-12-20T13:58:19;100125.53;;;12.97;51.79
22000;BME280;11164;48.818;2.322;2022-12-20T14:00:47;100130.56;;;12.93;51.77
22000;BME280;11164;48.818;2.322;2022-12-20T14:03:21;100127.75;;;12.81;51.88
22000;BME280;11164;48.818;2.322;2022-12-20T14:05:47;100131.47;;;12.87;51.65
22000;BME280;11164;48.818;2.322;2022-12-20T14:08:15;100140.19;;;12.89;51.78
22000;BME280;11164;48.818;2.322;2022-12-20T14:10:42;100131.50;;;12.80;51.90
22000;BME280;11164;48.818;2.322;2022-12-20T14:13:23;100127.81;;;12.74;52.56
22000;BME280;11164;48.818;2.322;2022-12-20T14:15:49;100127.53;;;12.83;51.76
22000;BME280;11164;48.818;2.322;2022-12-20T14:18:20;100118.16;;;12.85;51.59
22000;BME280;11164;48.818;2.322;2022-12-20T14:20:52;100114.44;;;12.80;51.92
22000;BME280;11164;48.818;2.322;2022-12-20T14:23:21;100113.16;;;12.64;52.24
22000;BME280;11164;48.818;2.322;2022-12-20T14:25:56;100109.13;;;12.54;52.71
22000;BME280;11164;48.818;2.322;2022-12-20T14:31:02;100115.94;;;12.57;52.44
22000;BME280;11164;48.818;2.322;2022-12-20T14:33:34;100107.94;;;12.44;53.01
22000;BME280;11164;48.818;2.322;2022-12-20T14:38:43;100109.78;;;12.25;53.48
22000;BME280;11164;48.818;2.322;2022-12-20T14:44:11;100106.97;;;12.38;52.88
22000;BME280;11164;48.818;2.322;2022-12-20T14:46:37;100110.38;;;12.52;52.41
22000;BME280;11164;48.818;2.322;2022-12-20T14:49:17;100103.72;;;12.29;53.80
22000;BME280;11164;48.818;2.322;2022-12-20T14:51:44;100096.75;;;12.22;53.21
22000;BME280;11164;48.818;2.322;2022-12-20T14:54:26;100094.41;;;12.25;53.94
22000;BME280;11164;48.818;2.322;2022-12-20T14:56:53;100084.97;;;12.34;52.95
22000;BME280;11164;48.818;2.322;2022-12-20T14:59:26;100091.13;;;12.23;53.68